sensor_id;sensor_type;location;lat;lon;timestamp;temperature;humidity
5834;DHT22;2943;48.012;10.968;2022-11-15T00:02:06;6.00;99.90
5834;DHT22;2943;48.012;10.968;2022-11-15T00:04:34;6.00;99.90
5834;DHT22;2943;48.012;10.968;2022-11-15T00:07:01;6.10;99.90
5834;DHT22;2943;48.012;10.968;2022-11-15T00:09:28;6.10;99.90
5834;DHT22;2943;48.012;10.968;2022-11-15T00:11:55;6.10;99.90
5834;DHT22;2943;48.012;10.968;2022-11-15T00:14:22;6.10;99.90
5834;DHT22;2943;48.012;10.968;2022-11-15T00:16:49;6.10;99.90
5834;DHT22;2943;48.012;10.968;2022-11-15T00:19:16;6.10;99.90
5834;DHT22;2943;48.012;10.968;2022-11-15T00:21:44;6.10;99.90
5834;DHT22;2943;48.012;10.968;2022-11-15T00:24:11;6.10;99.90
5834;DHT22;2943;48.012;10.968;2022-11-15T00:26:38;6.10;99.90
5834;DHT22;2943;48.012;10.968;2022-11-15T00:29:05;6.10;99.90
5834;DHT22;2943;48.012;10.968;2022-11-15T00:31:32;6.10;99.90
5834;DHT22;2943;48.012;10.968;2022-11-15T00:33:59;6.10;99.90
5834;DHT22;2943;48.012;10.968;2022-11-15T00:36:26;6.10;99.90
5834;DHT22;2943;48.012;10.968;2022-11-15T00:38:54;6.10;99.90
5834;DHT22;2943;48.012;10.968;2022-11-15T00:41:21;6.10;99.90
5834;DHT22;2943;48.012;10.968;2022-11-15T00:43:48;6.00;99.90
5834;DHT22;2943;48.012;10.968;2022-11-15T00:46:15;6.10;99.90
5834;DHT22;2943;48.012;10.968;2022-11-15T00:48:42;6.00;99.90
5834;DHT22;2943;48.012;10.968;2022-11-15T00:51:09;6.00;99.90
5834;DHT22;2943;48.012;10.968;2022-11-15T00:53:36;5.90;99.90
5834;DHT22;2943;48.012;10.968;2022-11-15T00:56:04;6.00;99.90
5834;DHT22;2943;48.012;10.968;2022-11-15T00:58:31;6.00;99.90
5834;DHT22;2943;48.012;10.968;2022-11-15T01:01:06;6.00;99.90
5834;DHT22;2943;48.012;10.968;2022-11-15T01:03:33;6.00;99.90
5834;DHT22;2943;48.012;10.968;2022-11-15T01:06:00;5.90;99.90
5834;DHT22;2943;48.012;10.968;2022-11-15T01:08:27;5.90;99.90
5834;DHT22;2943;48.012;10.968;2022-11-15T01:10:54;5.70;99.90
5834;DHT22;2943;48.012;10.968;2022-11-15T01:13:29;5.50;99.90
5834;DHT22;2943;48.012;10.968;2022-11-15T01:15:56;5.30;99.90
5834;DHT22;2943;48.012;10.968;2022-11-15T01:18:23;5.30;99.90
5834;DHT22;2943;48.012;10.968;2022-11-15T01:20:50;5.30;99.90
5834;DHT22;2943;48.012;10.968;2022-11-15T01:23:17;5.20;99.90
5834;DHT22;2943;48.012;10.968;2022-11-15T01:25:44;5.20;99.90
5834;DHT22;2943;48.012;10.968;2022-11-15T01:28:11;5.20;99.90
5834;DHT22;2943;48.012;10.968;2022-11-15T01:30:40;5.30;99.90
5834;DHT22;2943;48.012;10.968;2022-11-15T01:33:06;5.20;99.90
5834;DHT22;2943;48.012;10.968;2022-11-15T01:35:33;5.30;99.90
5834;DHT22;2943;48.012;10.968;2022-11-15T01:38:04;5.30;99.90
5834;DHT22;2943;48.012;10.968;2022-11-15T01:40:31;5.30;99.90
5834;DHT22;2943;48.012;10.968;2022-11-15T01:42:58;5.20;99.90
5834;DHT22;2943;48.012;10.968;2022-11-15T01:45:25;5.20;99.90
5834;DHT22;2943;48.012;10.968;2022-11-15T01:47:54;5.20;99.90
5834;DHT22;2943;48.012;10.968;2022-11-15T01:50:24;5.10;99.90
5834;DHT22;2943;48.012;10.968;2022-11-15T01:52:53;5.10;99.90
5834;DHT22;2943;48.012;10.968;2022-11-15T01:55:22;5.10;99.90
5834;DHT22;2943;48.012;10.968;2022-11-15T01:57:51;5.10;99.90
5834;DHT22;2943;48.012;10.968;2022-11-15T02:00:20;5.10;99.90
5834;DHT22;2943;48.012;10.968;2022-11-15T02:02:47;5.20;99.90
5834;DHT22;2943;48.012;10.968;2022-11-15T02:05:15;5.20;99.90
5834;DHT22;2943;48.012;10.968;2022-11-15T02:07:42;5.20;99.90
5834;DHT22;2943;48.012;10.968;2022-11-15T02:10:12;5.20;99.90
5834;DHT22;2943;48.012;10.968;2022-11-15T02:12:39;5.20;99.90
5834;DHT22;2943;48.012;10.968;2022-11-15T02:15:09;5.20;99.90
5834;DHT22;2943;48.012;10.968;2022-11-15T02:17:52;5.20;99.90
5834;DHT22;2943;48.012;10.968;2022-11-15T02:20:41;5.20;99.90
5834;DHT22;2943;48.012;10.968;2022-11-15T02:26:50;5.20;99.90
5834;DHT22;2943;48.012;10.968;2022-11-15T02:29:28;5.20;99.90
5834;DHT22;2943;48.012;10.968;2022-11-15T02:32:04;5.20;99.90
5834;DHT22;2943;48.012;10.968;2022-11-15T02:34:38;5.20;99.90
5834;DHT22;2943;48.012;10.968;2022-11-15T02:37:14;5.20;99.90
5834;DHT22;2943;48.012;10.968;2022-11-15T02:39:46;5.20;99.90
5834;DHT22;2943;48.012;10.968;2022-11-15T02:42:19;5.20;99.90
5834;DHT22;2943;48.012;10.968;2022-11-15T02:45:06;5.20;99.90
5834;DHT22;2943;48.012;10.968;2022-11-15T02:47:43;5.20;99.90
5834;DHT22;2943;48.012;10.968;2022-11-15T02:50:13;5.20;99.90
5834;DHT22;2943;48.012;10.968;2022-11-15T02:52:41;5.20;99.90
5834;DHT22;2943;48.012;10.968;2022-11-15T02:55:27;5.20;99.90
5834;DHT22;2943;48.012;10.968;2022-11-15T02:58:03;5.20;99.90
5834;DHT22;2943;48.012;10.968;2022-11-15T03:00:35;5.20;99.90
5834;DHT22;2943;48.012;10.968;2022-11-15T03:03:30;5.20;99.90
5834;DHT22;2943;48.012;10.968;2022-11-15T03:06:10;5.10;99.90
5834;DHT22;2943;48.012;10.968;2022-11-15T03:08:46;5.10;99.90
5834;DHT22;2943;48.012;10.968;2022-11-15T03:11:18;5.10;99.90
5834;DHT22;2943;48.012;10.968;2022-11-15T03:13:52;5.10;99.90
5834;DHT22;2943;48.012;10.968;2022-11-15T03:16:26;5.10;99.90
5834;DHT22;2943;48.012;10.968;2022-11-15T03:18:57;5.10;99.90
5834;DHT22;2943;48.012;10.968;2022-11-15T03:21:28;5.00;99.90
5834;DHT22;2943;48.012;10.968;2022-11-15T03:23:59;5.10;99.90
5834;DHT22;2943;48.012;10.968;2022-11-15T03:26:28;5.10;99.90
5834;DHT22;2943;48.012;10.968;2022-11-15T03:28:58;5.00;99.90
5834;DHT22;2943;48.012;10.968;2022-11-15T03:31:30;5.00;99.90
5834;DHT22;2943;48.012;10.968;2022-11-15T03:34:22;5.00;99.90
5834;DHT22;2943;48.012;10.968;2022-11-15T03:36:52;5.00;99.90
5834;DHT22;2943;48.012;10.968;2022-11-15T03:39:20;5.10;99.90
5834;DHT22;2943;48.012;10.968;2022-11-15T03:41:51;4.90;99.90
5834;DHT22;2943;48.012;10.968;2022-11-15T03:44:26;4.90;99.90
5834;DHT22;2943;48.012;10.968;2022-11-15T03:47:03;4.90;99.90
5834;DHT22;2943;48.012;10.968;2022-11-15T03:49:33;4.90;99.90
5834;DHT22;2943;48.012;10.968;2022-11-15T03:52:02;4.90;99.90
5834;DHT22;2943;48.012;10.968;2022-11-15T03:54:29;4.90;99.90
5834;DHT22;2943;48.012;10.968;2022-11-15T03:56:57;4.90;99.90
5834;DHT22;2943;48.012;10.968;2022-11-15T03:59:23;4.80;99.90
5834;DHT22;2943;48.012;10.968;2022-11-15T04:01:50;4.80;99.90
5834;DHT22;2943;48.012;10.968;2022-11-15T04:04:17;4.70;99.90
5834;DHT22;2943;48.012;10.968;2022-11-15T04:06:46;4.70;99.90
5834;DHT22;2943;48.012;10.968;2022-11-15T04:09:13;4.60;99.90
5834;DHT22;2943;48.012;10.968;2022-11-15T04:11:40;4.60;99.90
5834;DHT22;2943;48.012;10.968;2022-11-15T04:14:06;4.60;99.90
5834;DHT22;2943;48.012;10.968;2022-11-15T04:16:33;4.60;99.90
5834;DHT22;2943;48.012;10.968;2022-11-15T04:19:00;4.60;99.90
5834;DHT22;2943;48.012;10.968;2022-11-15T04:21:46;4.70;99.90
5834;DHT22;2943;48.012;10.968;2022-11-15T04:24:30;4.60;99.90
5834;DHT22;2943;48.012;10.968;2022-11-15T04:26:57;4.60;99.90
5834;DHT22;2943;48.012;10.968;2022-11-15T04:29:25;4.70;99.90
5834;DHT22;2943;48.012;10.968;2022-11-15T04:32:01;4.70;99.90
5834;DHT22;2943;48.012;10.968;2022-11-15T04:34:28;4.70;99.90
5834;DHT22;2943;48.012;10.968;2022-11-15T04:36:56;4.70;99.90
5834;DHT22;2943;48.012;10.968;2022-11-15T04:39:39;4.60;99.90
5834;DHT22;2943;48.012;10.968;2022-11-15T04:42:06;4.60;99.90
5834;DHT22;2943;48.012;10.968;2022-11-15T04:44:33;4.50;99.90
5834;DHT22;2943;48.012;10.968;2022-11-15T04:47:00;4.50;99.90
5834;DHT22;2943;48.012;10.968;2022-11-15T04:49:27;4.50;99.90
5834;DHT22;2943;48.012;10.968;2022-11-15T04:51:56;4.60;99.90
5834;DHT22;2943;48.012;10.968;2022-11-15T04:54:23;4.50;99.90
5834;DHT22;2943;48.012;10.968;2022-11-15T04:56:50;4.50;99.90
5834;DHT22;2943;48.012;10.968;2022-11-15T04:59:16;4.50;99.90
5834;DHT22;2943;48.012;10.968;2022-11-15T05:01:43;4.40;99.90
5834;DHT22;2943;48.012;10.968;2022-11-15T05:04:11;4.40;99.90
5834;DHT22;2943;48.012;10.968;2022-11-15T05:06:47;4.50;99.90
5834;DHT22;2943;48.012;10.968;2022-11-15T05:09:16;4.80;99.90
5834;DHT22;2943;48.012;10.968;2022-11-15T05:11:43;4.80;99.90
5834;DHT22;2943;48.012;10.968;2022-11-15T05:14:10;4.70;99.90
5834;DHT22;2943;48.012;10.968;2022-11-15T05:16:37;4.60;99.90
5834;DHT22;2943;48.012;10.968;2022-11-15T05:19:05;4.50;99.90
5834;DHT22;2943;48.012;10.968;2022-11-15T05:21:32;4.50;99.90
5834;DHT22;2943;48.012;10.968;2022-11-15T05:24:00;4.50;99.90
5834;DHT22;2943;48.012;10.968;2022-11-15T05:26:29;4.50;99.90
5834;DHT22;2943;48.012;10.968;2022-11-15T05:28:57;4.50;99.90
5834;DHT22;2943;48.012;10.968;2022-11-15T05:31:25;4.50;99.90
5834;DHT22;2943;48.012;10.968;2022-11-15T05:33:54;4.40;99.90
5834;DHT22;2943;48.012;10.968;2022-11-15T05:36:27;4.50;99.90
5834;DHT22;2943;48.012;10.968;2022-11-15T05:38:55;4.50;99.90
5834;DHT22;2943;48.012;10.968;2022-11-15T05:41:27;4.60;99.90
5834;DHT22;2943;48.012;10.968;2022-11-15T05:43:57;4.60;99.90
5834;DHT22;2943;48.012;10.968;2022-11-15T05:46:25;4.60;99.90
5834;DHT22;2943;48.012;10.968;2022-11-15T05:48:52;4.70;99.90
5834;DHT22;2943;48.012;10.968;2022-11-15T05:51:21;4.70;99.90
5834;DHT22;2943;48.012;10.968;2022-11-15T05:53:50;4.80;99.90
5834;DHT22;2943;48.012;10.968;2022-11-15T05:56:17;4.80;99.90
5834;DHT22;2943;48.012;10.968;2022-11-15T05:58:44;4.80;99.90
5834;DHT22;2943;48.012;10.968;2022-11-15T06:01:12;4.80;99.90
5834;DHT22;2943;48.012;10.968;2022-11-15T06:03:39;4.80;99.90
5834;DHT22;2943;48.012;10.968;2022-11-15T06:06:06;4.80;99.90
5834;DHT22;2943;48.012;10.968;2022-11-15T06:08:33;4.80;99.90
5834;DHT22;2943;48.012;10.968;2022-11-15T06:11:04;4.70;99.90
5834;DHT22;2943;48.012;10.968;2022-11-15T06:13:31;4.70;99.90
5834;DHT22;2943;48.012;10.968;2022-11-15T06:15:58;4.60;99.90
5834;DHT22;2943;48.012;10.968;2022-11-15T06:18:27;4.50;99.90
5834;DHT22;2943;48.012;10.968;2022-11-15T06:20:54;5.00;99.90
5834;DHT22;2943;48.012;10.968;2022-11-15T06:23:24;6.00;99.90
5834;DHT22;2943;48.012;10.968;2022-11-15T06:25:51;6.50;99.90
5834;DHT22;2943;48.012;10.968;2022-11-15T06:28:18;6.70;99.90
5834;DHT22;2943;48.012;10.968;2022-11-15T06:30:45;6.70;99.90
5834;DHT22;2943;48.012;10.968;2022-11-15T06:33:12;6.60;99.90
5834;DHT22;2943;48.012;10.968;2022-11-15T06:35:40;6.50;99.90
5834;DHT22;2943;48.012;10.968;2022-11-15T06:38:09;6.40;99.90
5834;DHT22;2943;48.012;10.968;2022-11-15T06:40:37;6.30;99.90
5834;DHT22;2943;48.012;10.968;2022-11-15T06:43:05;6.20;99.90
5834;DHT22;2943;48.012;10.968;2022-11-15T06:45:32;6.10;99.90
5834;DHT22;2943;48.012;10.968;2022-11-15T06:47:59;6.00;99.90
5834;DHT22;2943;48.012;10.968;2022-11-15T06:50:26;6.00;99.90
5834;DHT22;2943;48.012;10.968;2022-11-15T06:52:54;5.80;99.90
5834;DHT22;2943;48.012;10.968;2022-11-15T06:55:21;5.70;99.90
5834;DHT22;2943;48.012;10.968;2022-11-15T06:57:49;5.50;99.90
5834;DHT22;2943;48.012;10.968;2022-11-15T07:00:18;5.40;99.90
5834;DHT22;2943;48.012;10.968;2022-11-15T07:02:46;5.40;99.90
5834;DHT22;2943;48.012;10.968;2022-11-15T07:05:13;5.80;99.90
5834;DHT22;2943;48.012;10.968;2022-11-15T07:07:40;6.00;99.90
5834;DHT22;2943;48.012;10.968;2022-11-15T07:10:09;6.10;99.90
5834;DHT22;2943;48.012;10.968;2022-11-15T07:12:36;6.00;99.90
5834;DHT22;2943;48.012;10.968;2022-11-15T07:15:04;5.90;99.90
5834;DHT22;2943;48.012;10.968;2022-11-15T07:17:32;5.80;99.90
5834;DHT22;2943;48.012;10.968;2022-11-15T07:19:58;5.70;99.90
5834;DHT22;2943;48.012;10.968;2022-11-15T07:22:25;5.60;99.90
5834;DHT22;2943;48.012;10.968;2022-11-15T07:24:52;5.50;99.90
5834;DHT22;2943;48.012;10.968;2022-11-15T07:27:21;5.50;99.90
5834;DHT22;2943;48.012;10.968;2022-11-15T07:29:48;5.50;99.90
5834;DHT22;2943;48.012;10.968;2022-11-15T07:32:15;5.40;99.90
5834;DHT22;2943;48.012;10.968;2022-11-15T07:34:42;5.50;99.90
5834;DHT22;2943;48.012;10.968;2022-11-15T07:37:11;5.50;99.90
5834;DHT22;2943;48.012;10.968;2022-11-15T07:39:38;5.50;99.90
5834;DHT22;2943;48.012;10.968;2022-11-15T07:42:05;5.60;99.90
5834;DHT22;2943;48.012;10.968;2022-11-15T07:45:00;5.60;99.90
5834;DHT22;2943;48.012;10.968;2022-11-15T07:47:28;5.70;99.90
5834;DHT22;2943;48.012;10.968;2022-11-15T07:49:55;5.70;99.90
5834;DHT22;2943;48.012;10.968;2022-11-15T07:52:22;6.40;99.90
5834;DHT22;2943;48.012;10.968;2022-11-15T07:54:49;7.30;99.90
5834;DHT22;2943;48.012;10.968;2022-11-15T07:57:17;8.20;99.90
5834;DHT22;2943;48.012;10.968;2022-11-15T07:59:44;8.90;99.90
5834;DHT22;2943;48.012;10.968;2022-11-15T08:02:13;9.40;99.90
5834;DHT22;2943;48.012;10.968;2022-11-15T08:04:42;9.90;99.90
5834;DHT22;2943;48.012;10.968;2022-11-15T08:07:09;10.30;99.90
5834;DHT22;2943;48.012;10.968;2022-11-15T08:09:36;10.60;99.90
5834;DHT22;2943;48.012;10.968;2022-11-15T08:12:03;10.90;99.90
5834;DHT22;2943;48.012;10.968;2022-11-15T08:14:31;11.10;99.90
5834;DHT22;2943;48.012;10.968;2022-11-15T08:16:58;11.30;99.90
5834;DHT22;2943;48.012;10.968;2022-11-15T08:19:26;11.40;99.90
5834;DHT22;2943;48.012;10.968;2022-11-15T08:21:53;11.60;99.90
5834;DHT22;2943;48.012;10.968;2022-11-15T08:24:20;11.60;99.90
5834;DHT22;2943;48.012;10.968;2022-11-15T08:26:47;11.80;99.90
5834;DHT22;2943;48.012;10.968;2022-11-15T08:29:14;11.80;99.90
5834;DHT22;2943;48.012;10.968;2022-11-15T08:31:41;11.60;99.90
5834;DHT22;2943;48.012;10.968;2022-11-15T08:34:08;11.40;99.90
5834;DHT22;2943;48.012;10.968;2022-11-15T08:36:36;11.20;99.90
5834;DHT22;2943;48.012;10.968;2022-11-15T08:39:03;10.90;99.90
5834;DHT22;2943;48.012;10.968;2022-11-15T08:41:33;10.70;99.90
5834;DHT22;2943;48.012;10.968;2022-11-15T08:44:02;10.50;99.90
5834;DHT22;2943;48.012;10.968;2022-11-15T08:46:29;10.30;99.90
5834;DHT22;2943;48.012;10.968;2022-11-15T08:48:56;10.00;99.90
5834;DHT22;2943;48.012;10.968;2022-11-15T08:51:23;9.80;99.90
5834;DHT22;2943;48.012;10.968;2022-11-15T08:53:51;9.70;99.90
5834;DHT22;2943;48.012;10.968;2022-11-15T08:56:18;9.50;99.90
5834;DHT22;2943;48.012;10.968;2022-11-15T08:58:45;9.30;99.90
5834;DHT22;2943;48.012;10.968;2022-11-15T09:01:16;9.20;99.90
5834;DHT22;2943;48.012;10.968;2022-11-15T09:03:45;9.00;99.90
5834;DHT22;2943;48.012;10.968;2022-11-15T09:06:14;8.90;99.90
5834;DHT22;2943;48.012;10.968;2022-11-15T09:08:43;8.90;99.90
5834;DHT22;2943;48.012;10.968;2022-11-15T09:11:14;8.70;99.90
5834;DHT22;2943;48.012;10.968;2022-11-15T09:13:48;8.60;99.90
5834;DHT22;2943;48.012;10.968;2022-11-15T09:16:17;8.50;99.90
5834;DHT22;2943;48.012;10.968;2022-11-15T09:18:46;8.50;99.90
5834;DHT22;2943;48.012;10.968;2022-11-15T09:21:13;8.30;99.90
5834;DHT22;2943;48.012;10.968;2022-11-15T09:23:40;8.30;99.90
5834;DHT22;2943;48.012;10.968;2022-11-15T09:26:08;8.30;99.90
5834;DHT22;2943;48.012;10.968;2022-11-15T09:28:36;8.30;99.90
5834;DHT22;2943;48.012;10.968;2022-11-15T09:31:07;8.30;99.90
5834;DHT22;2943;48.012;10.968;2022-11-15T09:33:35;8.30;99.90
5834;DHT22;2943;48.012;10.968;2022-11-15T09:36:04;8.30;99.90
5834;DHT22;2943;48.012;10.968;2022-11-15T09:38:32;8.30;99.90
5834;DHT22;2943;48.012;10.968;2022-11-15T09:44:16;8.30;99.90
5834;DHT22;2943;48.012;10.968;2022-11-15T09:46:53;8.30;99.90
5834;DHT22;2943;48.012;10.968;2022-11-15T09:49:22;8.40;99.90
5834;DHT22;2943;48.012;10.968;2022-11-15T09:51:51;8.50;99.90
5834;DHT22;2943;48.012;10.968;2022-11-15T09:54:27;8.50;99.90
5834;DHT22;2943;48.012;10.968;2022-11-15T09:56:56;8.60;99.90
5834;DHT22;2943;48.012;10.968;2022-11-15T10:02:41;8.70;99.90
5834;DHT22;2943;48.012;10.968;2022-11-15T10:05:15;8.80;99.90
5834;DHT22;2943;48.012;10.968;2022-11-15T10:07:48;8.90;99.90
5834;DHT22;2943;48.012;10.968;2022-11-15T10:10:27;8.90;99.90
5834;DHT22;2943;48.012;10.968;2022-11-15T10:12:56;9.00;99.90
5834;DHT22;2943;48.012;10.968;2022-11-15T10:15:26;9.00;99.90
5834;DHT22;2943;48.012;10.968;2022-11-15T10:18:14;9.10;99.90
5834;DHT22;2943;48.012;10.968;2022-11-15T10:20:48;9.10;99.90
5834;DHT22;2943;48.012;10.968;2022-11-15T10:23:17;9.20;99.90
5834;DHT22;2943;48.012;10.968;2022-11-15T10:25:45;9.20;99.90
5834;DHT22;2943;48.012;10.968;2022-11-15T10:28:15;9.30;99.90
5834;DHT22;2943;48.012;10.968;2022-11-15T10:30:45;9.30;99.90
5834;DHT22;2943;48.012;10.968;2022-11-15T10:33:26;9.40;99.90
5834;DHT22;2943;48.012;10.968;2022-11-15T10:36:16;9.50;99.90
5834;DHT22;2943;48.012;10.968;2022-11-15T10:39:10;9.50;99.90
5834;DHT22;2943;48.012;10.968;2022-11-15T10:41:39;9.50;99.90
5834;DHT22;2943;48.012;10.968;2022-11-15T10:44:28;9.60;99.90
5834;DHT22;2943;48.012;10.968;2022-11-15T10:47:21;9.60;99.90
5834;DHT22;2943;48.012;10.968;2022-11-15T10:49:57;9.60;99.90
5834;DHT22;2943;48.012;10.968;2022-11-15T10:52:24;9.60;99.90
5834;DHT22;2943;48.012;10.968;2022-11-15T10:54:55;9.60;99.90
5834;DHT22;2943;48.012;10.968;2022-11-15T10:57:27;9.70;99.90
5834;DHT22;2943;48.012;10.968;2022-11-15T10:59:57;9.70;99.90
5834;DHT22;2943;48.012;10.968;2022-11-15T11:02:31;9.70;99.90
5834;DHT22;2943;48.012;10.968;2022-11-15T11:05:00;9.80;99.90
5834;DHT22;2943;48.012;10.968;2022-11-15T11:07:29;9.80;99.90
5834;DHT22;2943;48.012;10.968;2022-11-15T11:09:58;9.90;99.90
5834;DHT22;2943;48.012;10.968;2022-11-15T11:12:30;9.90;99.90
5834;DHT22;2943;48.012;10.968;2022-11-15T11:14:58;9.90;99.90
5834;DHT22;2943;48.012;10.968;2022-11-15T11:17:39;10.00;99.90
5834;DHT22;2943;48.012;10.968;2022-11-15T11:20:15;10.00;99.90
5834;DHT22;2943;48.012;10.968;2022-11-15T11:22:55;10.10;99.90
5834;DHT22;2943;48.012;10.968;2022-11-15T11:25:33;10.10;99.90
5834;DHT22;2943;48.012;10.968;2022-11-15T11:28:18;10.10;99.90
5834;DHT22;2943;48.012;10.968;2022-11-15T11:30:54;10.20;99.90
5834;DHT22;2943;48.012;10.968;2022-11-15T11:33:31;10.30;99.90
5834;DHT22;2943;48.012;10.968;2022-11-15T11:36:18;10.40;99.90
5834;DHT22;2943;48.012;10.968;2022-11-15T11:39:09;10.40;99.90
5834;DHT22;2943;48.012;10.968;2022-11-15T11:41:50;10.50;99.90
5834;DHT22;2943;48.012;10.968;2022-11-15T11:44:28;10.50;99.90
5834;DHT22;2943;48.012;10.968;2022-11-15T11:47:00;10.60;99.90
5834;DHT22;2943;48.012;10.968;2022-11-15T11:49:34;10.60;99.90
5834;DHT22;2943;48.012;10.968;2022-11-15T11:52:10;10.70;99.90
5834;DHT22;2943;48.012;10.968;2022-11-15T11:54:46;10.70;99.90
5834;DHT22;2943;48.012;10.968;2022-11-15T11:57:33;10.80;99.90
5834;DHT22;2943;48.012;10.968;2022-11-15T12:00:04;10.80;99.90
5834;DHT22;2943;48.012;10.968;2022-11-15T12:02:35;10.90;99.90
5834;DHT22;2943;48.012;10.968;2022-11-15T12:05:10;10.90;99.90
5834;DHT22;2943;48.012;10.968;2022-11-15T12:07:40;11.00;99.90
5834;DHT22;2943;48.012;10.968;2022-11-15T12:10:17;11.00;99.90
5834;DHT22;2943;48.012;10.968;2022-11-15T12:12:51;11.00;99.90
5834;DHT22;2943;48.012;10.968;2022-11-15T12:15:23;11.00;99.90
5834;DHT22;2943;48.012;10.968;2022-11-15T12:17:52;11.20;99.90
5834;DHT22;2943;48.012;10.968;2022-11-15T12:20:23;11.20;99.90
5834;DHT22;2943;48.012;10.968;2022-11-15T12:22:54;11.20;99.90
5834;DHT22;2943;48.012;10.968;2022-11-15T12:25:27;11.20;99.90
5834;DHT22;2943;48.012;10.968;2022-11-15T12:27:59;11.30;99.90
5834;DHT22;2943;48.012;10.968;2022-11-15T12:30:39;11.30;99.90
5834;DHT22;2943;48.012;10.968;2022-11-15T12:33:38;11.30;99.90
5834;DHT22;2943;48.012;10.968;2022-11-15T12:36:11;11.40;99.90
5834;DHT22;2943;48.012;10.968;2022-11-15T12:38:56;11.40;99.90
5834;DHT22;2943;48.012;10.968;2022-11-15T12:41:24;11.40;99.90
5834;DHT22;2943;48.012;10.968;2022-11-15T12:43:52;11.40;99.90
5834;DHT22;2943;48.012;10.968;2022-11-15T12:46:22;11.50;99.90
5834;DHT22;2943;48.012;10.968;2022-11-15T12:48:54;11.50;99.90
5834;DHT22;2943;48.012;10.968;2022-11-15T12:54:59;11.50;99.90
5834;DHT22;2943;48.012;10.968;2022-11-15T12:57:42;11.60;99.90
5834;DHT22;2943;48.012;10.968;2022-11-15T13:00:43;11.60;99.90
5834;DHT22;2943;48.012;10.968;2022-11-15T13:03:26;11.60;99.90
5834;DHT22;2943;48.012;10.968;2022-11-15T13:06:00;11.60;99.90
5834;DHT22;2943;48.012;10.968;2022-11-15T13:08:49;11.60;99.90
5834;DHT22;2943;48.012;10.968;2022-11-15T13:11:43;11.70;99.90
5834;DHT22;2943;48.012;10.968;2022-11-15T13:14:42;11.70;99.90
5834;DHT22;2943;48.012;10.968;2022-11-15T13:20:19;11.70;99.90
5834;DHT22;2943;48.012;10.968;2022-11-15T13:22:49;11.70;99.90
5834;DHT22;2943;48.012;10.968;2022-11-15T13:25:48;11.70;99.90
5834;DHT22;2943;48.012;10.968;2022-11-15T13:28:26;11.70;99.90
5834;DHT22;2943;48.012;10.968;2022-11-15T13:30:58;11.70;99.90
5834;DHT22;2943;48.012;10.968;2022-11-15T13:33:30;11.70;99.90
5834;DHT22;2943;48.012;10.968;2022-11-15T13:35:59;11.70;99.90
5834;DHT22;2943;48.012;10.968;2022-11-15T13:38:29;11.70;99.90
5834;DHT22;2943;48.012;10.968;2022-11-15T13:40:57;11.70;99.90
5834;DHT22;2943;48.012;10.968;2022-11-15T13:43:32;11.70;99.90
5834;DHT22;2943;48.012;10.968;2022-11-15T13:46:15;11.70;99.90
5834;DHT22;2943;48.012;10.968;2022-11-15T13:48:56;11.60;99.90
5834;DHT22;2943;48.012;10.968;2022-11-15T13:51:40;11.60;99.90
5834;DHT22;2943;48.012;10.968;2022-11-15T13:54:16;11.60;99.90
5834;DHT22;2943;48.012;10.968;2022-11-15T13:56:51;11.60;99.90
5834;DHT22;2943;48.012;10.968;2022-11-15T13:59:25;11.60;99.90
5834;DHT22;2943;48.012;10.968;2022-11-15T14:01:52;11.50;99.90
5834;DHT22;2943;48.012;10.968;2022-11-15T14:04:23;11.50;99.90
5834;DHT22;2943;48.012;10.968;2022-11-15T14:06:54;11.40;99.90
5834;DHT22;2943;48.012;10.968;2022-11-15T14:09:39;11.40;99.90
5834;DHT22;2943;48.012;10.968;2022-11-15T14:12:28;11.30;99.90
5834;DHT22;2943;48.012;10.968;2022-11-15T14:14:57;11.30;99.90
5834;DHT22;2943;48.012;10.968;2022-11-15T14:17:36;11.30;99.90
5834;DHT22;2943;48.012;10.968;2022-11-15T14:20:19;11.20;99.90
5834;DHT22;2943;48.012;10.968;2022-11-15T14:22:52;11.20;99.90
5834;DHT22;2943;48.012;10.968;2022-11-15T14:25:20;11.20;99.90
5834;DHT22;2943;48.012;10.968;2022-11-15T14:28:09;11.20;99.90
5834;DHT22;2943;48.012;10.968;2022-11-15T14:30:41;11.20;99.90
5834;DHT22;2943;48.012;10.968;2022-11-15T14:33:20;11.20;99.90
5834;DHT22;2943;48.012;10.968;2022-11-15T14:35:48;11.20;99.90
5834;DHT22;2943;48.012;10.968;2022-11-15T14:38:15;11.20;99.90
5834;DHT22;2943;48.012;10.968;2022-11-15T14:40:42;11.10;99.90
5834;DHT22;2943;48.012;10.968;2022-11-15T14:43:10;11.10;99.90
5834;DHT22;2943;48.012;10.968;2022-11-15T14:45:39;11.10;99.90
5834;DHT22;2943;48.012;10.968;2022-11-15T14:48:06;11.00;99.90
5834;DHT22;2943;48.012;10.968;2022-11-15T14:50:34;11.00;99.90
5834;DHT22;2943;48.012;10.968;2022-11-15T14:53:02;11.00;99.90
5834;DHT22;2943;48.012;10.968;2022-11-15T14:55:31;11.00;99.90
5834;DHT22;2943;48.012;10.968;2022-11-15T14:58:01;11.00;99.90
5834;DHT22;2943;48.012;10.968;2022-11-15T15:00:29;11.00;99.90
5834;DHT22;2943;48.012;10.968;2022-11-15T15:02:57;10.90;99.90
5834;DHT22;2943;48.012;10.968;2022-11-15T15:05:29;10.90;99.90
5834;DHT22;2943;48.012;10.968;2022-11-15T15:07:58;10.90;99.90
5834;DHT22;2943;48.012;10.968;2022-11-15T15:10:27;11.00;99.90
5834;DHT22;2943;48.012;10.968;2022-11-15T15:12:56;10.90;99.90
5834;DHT22;2943;48.012;10.968;2022-11-15T15:15:25;10.90;99.90
5834;DHT22;2943;48.012;10.968;2022-11-15T15:17:52;10.90;99.90
5834;DHT22;2943;48.012;10.968;2022-11-15T15:20:21;10.80;99.90
5834;DHT22;2943;48.012;10.968;2022-11-15T15:22:47;10.90;99.90
5834;DHT22;2943;48.012;10.968;2022-11-15T15:25:22;10.80;99.90
5834;DHT22;2943;48.012;10.968;2022-11-15T15:27:51;10.80;99.90
5834;DHT22;2943;48.012;10.968;2022-11-15T15:30:18;10.80;99.90
5834;DHT22;2943;48.012;10.968;2022-11-15T15:32:45;10.80;99.90
5834;DHT22;2943;48.012;10.968;2022-11-15T15:35:13;10.70;99.90
5834;DHT22;2943;48.012;10.968;2022-11-15T15:37:42;10.70;99.90
5834;DHT22;2943;48.012;10.968;2022-11-15T15:40:12;10.70;99.90
5834;DHT22;2943;48.012;10.968;2022-11-15T15:42:40;10.60;99.90
5834;DHT22;2943;48.012;10.968;2022-11-15T15:45:08;10.60;99.90
5834;DHT22;2943;48.012;10.968;2022-11-15T15:47:35;10.60;99.90
5834;DHT22;2943;48.012;10.968;2022-11-15T15:50:03;10.60;99.90
5834;DHT22;2943;48.012;10.968;2022-11-15T15:52:31;10.50;99.90
5834;DHT22;2943;48.012;10.968;2022-11-15T15:54:59;10.40;99.90
5834;DHT22;2943;48.012;10.968;2022-11-15T15:57:26;10.40;99.90
5834;DHT22;2943;48.012;10.968;2022-11-15T15:59:53;10.40;99.90
5834;DHT22;2943;48.012;10.968;2022-11-15T16:02:19;10.30;99.90
5834;DHT22;2943;48.012;10.968;2022-11-15T16:04:47;10.30;99.90
5834;DHT22;2943;48.012;10.968;2022-11-15T16:07:17;10.30;99.90
5834;DHT22;2943;48.012;10.968;2022-11-15T16:09:47;10.30;99.90
5834;DHT22;2943;48.012;10.968;2022-11-15T16:12:27;10.20;99.90
5834;DHT22;2943;48.012;10.968;2022-11-15T16:14:55;10.20;99.90
5834;DHT22;2943;48.012;10.968;2022-11-15T16:17:24;10.10;99.90
5834;DHT22;2943;48.012;10.968;2022-11-15T16:19:52;10.10;99.90
5834;DHT22;2943;48.012;10.968;2022-11-15T16:22:19;10.00;99.90
5834;DHT22;2943;48.012;10.968;2022-11-15T16:24:46;10.00;99.90
5834;DHT22;2943;48.012;10.968;2022-11-15T16:27:14;10.00;99.90
5834;DHT22;2943;48.012;10.968;2022-11-15T16:29:43;9.90;99.90
5834;DHT22;2943;48.012;10.968;2022-11-15T16:32:10;9.90;99.90
5834;DHT22;2943;48.012;10.968;2022-11-15T16:34:37;9.90;99.90
5834;DHT22;2943;48.012;10.968;2022-11-15T16:37:05;9.80;99.90
5834;DHT22;2943;48.012;10.968;2022-11-15T16:39:32;9.80;99.90